Time;durP1;ratioP1;P1;durP2;ratioP2;P2;SDS_P1;SDS_P2;PMS_P1;PMS_P2;Temp;Humidity;BMP_temperature;BMP_pressure;BME280_temperature;BME280_humidity;BME280_pressure;Samples;Min_cycle;Max_cycle;Signal;HPM_P1;HPM_P2
2022/04/04 00:01:58;;;;;;;31.05;17.52;;;;;;;;;;5052193;28;20091;-75
2022/04/04 00:04:23;;;;;;;29.43;17.17;;;;;;;;;;5051412;28;20569;-74
2022/04/04 00:06:48;;;;;;;29.90;16.80;;;;;;;;;;5051517;28;20269;-75
2022/04/04 00:09:14;;;;;;;27.10;16.47;;;;;;;;;;5050722;28;20289;-75
2022/04/04 00:11:39;;;;;;;29.10;15.53;;;;;;;;;;5051958;28;20037;-75
2022/04/04 00:14:05;;;;;;;24.75;15.07;;;;;;;;;;5050909;28;20828;-74
2022/04/04 00:16:32;;;;;;;26.42;15.80;;;;;;;;;;5049961;28;20537;-75
2022/04/04 00:18:59;;;;;;;23.70;14.25;;;;;;;2.59;nan;100940.81;5050891;28;20116;-76
2022/04/04 00:21:24;;;;;;;22.48;13.50;;;;;;;;;;5052418;28;20044;-74
2022/04/04 00:23:50;;;;;;;23.38;13.82;;;;;;;;;;5050063;28;20040;-75
2022/04/04 00:26:15;;;;;;;22.95;12.95;;;;;;;;;;5051197;28;20037;-75
2022/04/04 00:28:40;;;;;;;21.92;12.88;;;;;;;;;;5051222;28;20060;-76
2022/04/04 00:31:06;;;;;;;20.87;12.17;;;;;;;;;;5051738;28;20045;-75
2022/04/04 00:33:31;;;;;;;18.75;11.77;;;;;;;;;;5051227;28;20813;-75
2022/04/04 00:35:56;;;;;;;21.08;12.07;;;;;;;;;;5051030;28;20426;-75
2022/04/04 00:38:22;;;;;;;20.83;12.02;;;;;;;;;;5043950;28;20096;-75
2022/04/04 00:40:48;;;;;;;20.55;12.25;;;;;;;;;;5048379;28;20490;-76
2022/04/04 00:43:13;;;;;;;19.88;11.90;;;;;;;;;;5050855;28;20040;-74
2022/04/04 00:45:42;;;;;;;23.93;11.77;;;;;;;;;;5050594;28;20047;-74
2022/04/04 00:48:08;;;;;;;23.35;11.70;;;;;;;;;;5050913;28;20285;-76
2022/04/04 00:50:33;;;;;;;21.17;11.55;;;;;;;;;;5050343;28;20052;-75
2022/04/04 00:52:59;;;;;;;20.45;10.98;;;;;;;;;;5050842;28;20025;-75
2022/04/04 00:55:24;;;;;;;19.77;11.13;;;;;;;;;;5050898;28;20068;-75
2022/04/04 00:57:51;;;;;;;19.57;11.53;;;;;;;;;;5042113;28;20069;-75
2022/04/04 01:00:17;;;;;;;19.38;11.57;;;;;;;;;;5048824;28;20675;-75
2022/04/04 01:02:42;;;;;;;16.77;10.50;;;;;;;;;;5049986;28;20037;-75
2022/04/04 01:05:09;;;;;;;20.77;11.48;;;;;;;;;;5050563;28;20039;-75
2022/04/04 01:07:38;;;;;;;16.00;10.50;;;;;;;;;;5031240;28;20084;-75
2022/04/04 01:10:06;;;;;;;19.38;11.10;;;;;;;;;;5050084;28;20494;-76
2022/04/04 01:12:31;;;;;;;18.50;9.98;;;;;;;;;;5051291;28;20065;-75
2022/04/04 01:14:56;;;;;;;18.27;10.35;;;;;;;;;;5050720;28;20083;-75
2022/04/04 01:17:21;;;;;;;18.38;9.90;;;;;;;;;;5050599;28;20124;-75
2022/04/04 01:19:47;;;;;;;19.95;10.23;;;;;;;;;;5050173;28;20483;-75
2022/04/04 01:22:13;;;;;;;16.23;9.80;;;;;;;;;;5050627;28;20040;-75
2022/04/04 01:24:39;;;;;;;19.83;9.98;;;;;;;;;;5050146;28;20043;-74
2022/04/04 01:27:05;;;;;;;16.13;10.15;;;;;;;;;;5050592;28;20120;-74
2022/04/04 01:29:31;;;;;;;17.38;9.75;;;;;;;;;;5050362;28;20067;-75
2022/04/04 01:31:56;;;;;;;19.25;10.80;;;;;;;;;;5050641;28;20495;-74
2022/04/04 01:34:22;;;;;;;16.10;9.50;;;;;;;;;;5051045;28;20059;-75
2022/04/04 01:36:47;;;;;;;16.65;9.98;;;;;;;;;;5049815;28;20036;-75
2022/04/04 01:39:13;;;;;;;20.05;9.95;;;;;;;;;;5050779;28;20457;-73
2022/04/04 01:41:38;;;;;;;15.30;8.80;;;;;;;;;;5050464;28;20051;-75
2022/04/04 01:44:03;;;;;;;16.95;9.70;;;;;;;;;;5049276;28;20029;-77
2022/04/04 01:46:29;;;;;;;15.23;9.70;;;;;;;;;;5049260;28;20772;-76
2022/04/04 01:48:55;;;;;;;15.63;8.95;;;;;;;;;;5050336;28;20118;-74
2022/04/04 01:51:20;;;;;;;15.52;9.25;;;;;;;;;;5050580;28;20040;-74
2022/04/04 01:53:46;;;;;;;17.85;9.60;;;;;;;;;;5049197;28;20145;-74
2022/04/04 01:56:12;;;;;;;18.20;9.93;;;;;;;;;;5049745;28;20040;-75
2022/04/04 01:58:37;;;;;;;18.63;10.15;;;;;;;;;;5049875;28;20510;-73
2022/04/04 02:01:08;;;;;;;19.35;10.18;;;;;;;;;;5050790;28;20044;-73
2022/04/04 02:03:35;;;;;;;17.13;10.10;;;;;;;;;;5044642;28;20075;-75
2022/04/04 02:06:02;;;;;;;15.73;9.98;;;;;;;;;;5044452;28;20081;-76
2022/04/04 02:08:27;;;;;;;17.75;9.82;;;;;;;;;;5053363;28;20060;-75
2022/04/04 02:10:52;;;;;;;15.27;9.38;;;;;;;;;;5048823;28;20076;-75
2022/04/04 02:13:17;;;;;;;16.08;8.73;;;;;;;;;;5049434;28;20029;-76
2022/04/04 02:15:43;;;;;;;14.93;9.13;;;;;;;;;;5049638;28;20087;-75
2022/04/04 02:18:08;;;;;;;14.90;9.32;;;;;;;;;;5066019;28;20274;-75
2022/04/04 02:20:34;;;;;;;15.32;9.40;;;;;;;;;;5053530;28;20045;-74
2022/04/04 02:23:00;;;;;;;19.10;9.98;;;;;;;;;;5066205;28;20029;-74
2022/04/04 02:25:26;;;;;;;34.83;14.30;;;;;;;;;;5045263;28;20056;-74
2022/04/04 02:27:51;;;;;;;29.10;14.05;;;;;;;;;;5056790;28;20037;-74
2022/04/04 02:30:16;;;;;;;23.03;11.87;;;;;;;;;;5063312;28;20037;-74
2022/04/04 02:32:41;;;;;;;16.30;9.77;;;;;;;;;;5060007;28;20029;-75
2022/04/04 02:35:07;;;;;;;17.43;9.70;;;;;;;;;;5052014;28;20354;-74
2022/04/04 02:37:32;;;;;;;16.35;9.25;;;;;;;;;;5053417;28;20277;-74
2022/04/04 02:39:57;;;;;;;19.02;9.15;;;;;;;;;;5046423;28;20041;-74
2022/04/04 02:42:23;;;;;;;16.98;9.18;;;;;;;;;;5046804;28;20033;-74
2022/04/04 02:44:48;;;;;;;18.80;9.95;;;;;;;;;;5051128;28;20086;-75
2022/04/04 02:47:14;;;;;;;16.88;9.88;;;;;;;1.41;nan;100972.53;5053164;28;20037;-74
2022/04/04 02:49:39;;;;;;;19.35;9.85;;;;;;;1.29;nan;100960.75;5052654;28;20108;-74
2022/04/04 02:52:05;;;;;;;16.58;9.63;;;;;;;1.38;nan;100972.81;5053847;28;20048;-75
2022/04/04 02:54:30;;;;;;;16.15;8.90;;;;;;;1.35;nan;100970.53;5051436;28;20029;-73
2022/04/04 02:56:56;;;;;;;18.05;9.65;;;;;;;1.33;nan;100971.66;5051539;28;20033;-74
2022/04/04 02:59:21;;;;;;;17.38;9.80;;;;;;;1.00;nan;100920.31;5067769;28;20448;-73
2022/04/04 03:01:49;;;;;;;20.63;10.13;;;;;;;1.26;nan;100961.03;5050660;28;20044;-74
2022/04/04 03:04:15;;;;;;;17.38;10.20;;;;;;;1.27;nan;100970.47;5053473;28;20087;-74
2022/04/04 03:06:41;;;;;;;17.30;9.15;;;;;;;1.17;nan;100972.31;5051923;28;20437;-74
2022/04/04 03:09:06;;;;;;;19.88;9.63;;;;;;;1.15;nan;100982.03;5052829;28;20095;-74
2022/04/04 03:11:32;;;;;;;17.48;9.70;;;;;;;1.04;nan;100963.13;5050396;28;20094;-74
2022/04/04 03:13:57;;;;;;;17.70;10.40;;;;;;;1.03;nan;100960.69;5051349;28;20119;-74
2022/04/04 03:16:23;;;;;;;18.27;10.35;;;;;;;1.03;nan;100964.13;5053441;28;20036;-74
2022/04/04 03:18:48;;;;;;;18.73;10.13;;;;;;;1.03;nan;100971.06;5052097;28;20029;-74
2022/04/04 03:21:14;;;;;;;23.15;10.38;;;;;;;1.00;nan;100977.34;5053381;28;20423;-74
2022/04/04 03:23:40;;;;;;;20.63;10.38;;;;;;;1.05;nan;100979.50;5050511;28;20037;-75
2022/04/04 03:26:08;;;;;;;20.10;9.88;;;;;;;0.97;nan;100969.88;5051963;28;20067;-75
2022/04/04 03:28:33;;;;;;;16.70;9.75;;;;;;;0.95;nan;100964.03;5047865;28;20048;-75
2022/04/04 03:30:59;;;;;;;17.20;9.50;;;;;;;0.90;nan;100966.25;5049785;28;20143;-74
2022/04/04 03:33:24;;;;;;;15.68;9.45;;;;;;;0.97;nan;100982.03;5052160;28;20040;-74
2022/04/04 03:35:50;;;;;;;20.58;10.57;;;;;;;0.90;nan;100968.03;5052210;28;20032;-74
2022/04/04 03:38:16;;;;;;;19.95;9.90;;;;;;;0.77;nan;100950.25;5051157;28;20040;-74
2022/04/04 03:40:42;;;;;;;18.95;10.27;;;;;;;0.93;nan;100991.88;5051703;28;20075;-74
2022/04/04 03:43:08;;;;;;;24.38;9.80;;;;;;;0.78;nan;100960.47;5045377;28;20608;-74
2022/04/04 03:45:34;;;;;;;22.10;10.13;;;;;;;0.85;nan;100973.66;5055896;28;20036;-74
2022/04/04 03:48:00;;;;;;;17.13;9.90;;;;;;;0.71;nan;100959.41;5054739;28;20041;-74
2022/04/04 03:50:27;;;;;;;18.90;10.05;;;;;;;0.90;nan;100992.16;5049110;28;20103;-73
2022/04/04 03:52:53;;;;;;;19.83;10.98;;;;;;;0.84;nan;100983.22;5055667;28;20028;-73
2022/04/04 03:55:22;;;;;;;20.02;11.60;;;;;;;0.86;nan;100983.06;5045426;28;20060;-73
2022/04/04 03:57:48;;;;;;;22.35;10.48;;;;;;;0.71;nan;100977.56;5054201;28;20060;-73
2022/04/04 04:00:14;;;;;;;20.80;10.57;;;;;;;0.56;nan;100964.28;5053148;28;20534;-73
2022/04/04 04:02:41;;;;;;;21.50;11.18;;;;;;;0.77;nan;101008.09;5052707;28;20021;-72
2022/04/04 04:05:07;;;;;;;21.85;11.13;;;;;;;0.74;nan;101000.63;5053144;28;20107;-74
2022/04/04 04:07:33;;;;;;;24.02;12.40;;;;;;;0.68;nan;101006.38;5053423;28;20031;-74
2022/04/04 04:09:58;;;;;;;21.63;12.32;;;;;;;0.62;nan;101001.75;5066398;28;20036;-71
2022/04/04 04:12:24;;;;;;;26.55;13.43;;;;;;;0.57;nan;101002.19;5052727;28;20036;-73
2022/04/04 04:14:51;;;;;;;24.90;12.88;;;;;;;0.67;nan;101024.66;5049661;28;20043;-71
2022/04/04 04:17:21;;;;;;;26.17;11.75;;;;;;;0.56;nan;101010.94;5046172;28;20041;-70
2022/04/04 04:22:32;;;;;;;23.77;12.60;;;;;;;0.45;nan;101026.66;5050073;28;20128;-69
2022/04/04 04:24:59;;;;;;;29.05;12.35;;;;;;;0.34;nan;101025.09;5050124;28;20116;-71
2022/04/04 04:27:24;;;;;;;26.00;12.15;;;;;;;0.26;nan;101017.19;5051570;28;20040;-70
2022/04/04 04:29:50;;;;;;;25.88;13.27;;;;;;;0.27;nan;101036.16;5055067;28;20085;-70
2022/04/04 04:32:15;;;;;;;34.83;14.80;;;;;;;0.17;nan;101023.25;5051501;28;20037;-70
2022/04/04 04:34:46;;;;;;;23.23;12.93;;;;;;;0.11;nan;101022.00;5051717;28;20487;-69
2022/04/04 04:37:15;;;;;;;26.95;13.80;;;;;;;0.28;nan;101058.50;5050295;28;20529;-69
2022/04/04 04:39:40;;;;;;;36.30;14.48;;;;;;;0.17;nan;101044.78;5051005;28;20025;-69
2022/04/04 04:42:06;;;;;;;28.25;15.13;;;;;;;0.09;nan;101036.06;5050480;28;20044;-69
2022/04/04 04:44:31;;;;;;;29.70;13.95;;;;;;;0.11;nan;101050.50;5050019;28;20034;-68
2022/04/04 04:46:57;;;;;;;29.45;15.15;;;;;;;-0.16;nan;101015.00;5036878;28;20057;-69
2022/04/04 04:49:24;;;;;;;28.05;14.75;;;;;;;0.00;nan;101042.91;5050645;28;20623;-69
2022/04/04 04:51:50;;;;;;;34.47;17.17;;;;;;;0.01;nan;101061.84;5050601;28;20074;-69
2022/04/04 04:54:16;;;;;;;35.78;15.88;;;;;;;-0.07;nan;101047.03;5049071;28;20104;-70
2022/04/04 04:56:43;;;;;;;31.10;15.93;;;;;;;-0.13;nan;101045.78;5041978;28;20159;-70
2022/04/04 04:59:09;;;;;;;34.58;16.88;;;;;;;-0.03;nan;101059.53;5054298;28;20045;-71
2022/04/04 05:01:35;;;;;;;30.55;16.20;;;;;;;-0.01;nan;101047.25;5048802;28;20037;-70
2022/04/04 05:04:00;;;;;;;35.25;17.55;;;;;;;0.04;nan;101043.44;5048841;28;20035;-71
2022/04/04 05:06:28;;;;;;;42.33;17.02;;;;;;;0.07;nan;101041.38;5049599;28;20055;-70
2022/04/04 05:08:55;;;;;;;37.53;18.05;;;;;;;0.17;nan;101057.72;5051748;28;20503;-70
2022/04/04 05:11:21;;;;;;;45.83;19.45;;;;;;;0.31;nan;101073.75;5049728;28;20667;-68
2022/04/04 05:13:47;;;;;;;46.42;20.85;;;;;;;0.36;nan;101074.13;5050262;28;20033;-69
2022/04/04 05:16:14;;;;;;;41.67;20.75;;;;;;;0.32;nan;101073.63;5050527;28;20037;-70
2022/04/04 05:18:42;;;;;;;39.53;19.00;;;;;;;0.33;nan;101067.47;5050963;28;20090;-70
2022/04/04 05:21:09;;;;;;;36.92;19.77;;;;;;;0.42;nan;101086.53;5050911;28;20043;-70
2022/04/04 05:23:35;;;;;;;49.25;18.80;;;;;;;0.42;nan;101083.94;5061749;28;20048;-70
2022/04/04 05:26:00;;;;;;;37.28;17.27;;;;;;;0.42;nan;101078.78;5047949;28;20037;-71
2022/04/04 05:28:26;;;;;;;33.15;16.77;;;;;;;0.59;nan;101109.09;5055861;28;20521;-71
2022/04/04 05:30:51;;;;;;;45.33;18.65;;;;;;;0.59;nan;101098.75;5056394;28;20033;-71
2022/04/04 05:33:17;;;;;;;48.25;20.63;;;;;;;0.66;nan;101100.78;5053727;28;20108;-71
2022/04/04 05:35:42;;;;;;;38.83;16.95;;;;;;;0.65;nan;101097.38;5055650;28;20044;-71
2022/04/04 05:38:08;;;;;;;31.92;14.68;;;;;;;0.59;nan;101082.38;5053242;28;20055;-70
2022/04/04 05:40:34;;;;;;;31.42;15.20;;;;;;;0.77;nan;101106.59;5047807;28;20060;-72
2022/04/04 05:43:00;;;;;;;27.05;13.60;;;;;;;0.93;nan;101137.06;5048777;28;20163;-70
2022/04/04 05:45:26;;;;;;;28.23;14.50;;;;;;;0.98;nan;101131.47;5044073;28;20102;-70
2022/04/04 05:47:52;;;;;;;29.15;14.30;;;;;;;0.97;nan;101124.66;5048595;28;20475;-70
2022/04/04 05:50:18;;;;;;;29.67;14.40;;;;;;;1.00;nan;101121.75;5049021;28;20029;-70
2022/04/04 05:52:44;;;;;;;32.90;14.50;;;;;;;1.05;nan;101128.16;5040227;28;20033;-69
2022/04/04 05:55:10;;;;;;;30.20;15.35;;;;;;;1.12;nan;101124.97;5045258;28;20041;-71
2022/04/04 05:57:39;;;;;;;29.50;14.63;;;;;;;1.25;nan;101135.84;5056902;28;20373;-70
2022/04/04 06:00:10;;;;;;;31.15;14.80;;;;;;;1.30;nan;101143.19;5046284;28;20128;-70
2022/04/04 06:02:40;;;;;;;26.35;13.52;;;;;;;1.25;nan;101126.28;5042476;28;20079;-69
2022/04/04 06:05:07;;;;;;;26.55;13.45;;;;;;;1.33;nan;101135.09;5057772;28;20041;-70
2022/04/04 06:07:34;;;;;;;30.08;13.90;;;;;;;1.38;nan;101130.28;5057746;28;20120;-71
2022/04/04 06:09:59;;;;;;;33.13;15.07;;;;;;;1.54;nan;101150.41;5041535;28;20477;-69
2022/04/04 06:12:25;;;;;;;28.85;15.10;;;;;;;1.51;nan;101143.75;5047864;28;20116;-69
2022/04/04 06:14:50;;;;;;;26.00;13.35;;;;;;;1.72;nan;101158.19;5046403;28;20029;-70
2022/04/04 06:17:15;;;;;;;25.38;13.57;;;;;;;1.69;nan;101141.94;5048972;28;20107;-73
2022/04/04 06:19:43;;;;;;;22.60;11.38;;;;;;;1.78;nan;101149.81;5041075;28;20121;-73
2022/04/04 06:22:09;;;;;;;21.90;11.07;;;;;;;1.96;nan;101165.38;5037384;28;20037;-73
2022/04/04 06:24:35;;;;;;;21.17;11.23;;;;;;;2.03;nan;101172.44;5048599;28;20048;-72
2022/04/04 06:27:02;;;;;;;22.58;11.23;;;;;;;2.09;nan;101155.44;5027434;28;20491;-71
2022/04/04 06:29:27;;;;;;;21.63;11.30;;;;;;;2.21;nan;101166.41;5042435;28;20453;-72
2022/04/04 06:31:53;;;;;;;20.13;9.75;;;;;;;2.24;nan;101148.72;5047451;28;20068;-74
2022/04/04 06:34:19;;;;;;;21.08;10.35;;;;;;;2.41;nan;101169.63;5050714;28;20519;-73
2022/04/04 06:36:46;;;;;;;17.50;10.05;;;;;;;2.43;nan;101152.91;5044650;28;20382;-75
2022/04/04 06:39:12;;;;;;;17.08;10.00;;;;;;;2.52;nan;101166.78;5047897;28;20033;-74
2022/04/04 06:41:38;;;;;;;25.13;9.55;;;;;;;2.45;nan;101138.00;5046589;28;20040;-72
2022/04/04 06:44:04;;;;;;;18.67;9.90;;;;;;;2.60;nan;101153.81;5047347;28;20033;-72
2022/04/04 06:46:30;;;;;;;18.05;9.35;;;;;;;2.58;nan;101131.56;5060451;28;20033;-72
2022/04/04 06:48:56;;;;;;;16.95;9.30;;;;;;;2.75;nan;101164.47;5041552;28;20040;-73
2022/04/04 06:51:21;;;;;;;18.23;9.88;;;;;;;2.76;nan;101145.31;5049505;28;20044;-73
2022/04/04 06:53:47;;;;;;;18.73;10.13;;;;;;;2.84;nan;101147.94;5064029;28;20029;-72
2022/04/04 06:56:13;;;;;;;21.58;10.07;;;;;;;2.96;nan;101164.91;5051629;28;20033;-72
2022/04/04 06:58:38;;;;;;;16.92;9.30;;;;;;;2.92;nan;101147.16;5047615;28;20111;-72
2022/04/04 07:01:04;;;;;;;23.40;10.93;;;;;;;3.04;nan;101161.53;5049798;28;20044;-73
2022/04/04 07:03:29;;;;;;;21.42;10.65;;;;;;;3.08;nan;101147.22;5050753;28;20025;-74
2022/04/04 07:05:55;;;;;;;18.90;10.65;;;;;;;3.24;nan;101166.50;5050401;28;20041;-74
2022/04/04 07:08:21;;;;;;;23.63;10.80;;;;;;;3.31;nan;101170.91;5052491;28;20035;-72
2022/04/04 07:10:47;;;;;;;15.45;8.95;;;;;;;3.38;nan;101163.28;5051244;28;20669;-75
2022/04/04 07:13:16;;;;;;;15.55;9.65;;;;;;;3.41;nan;101162.94;5050155;28;20102;-73
2022/04/04 07:15:43;;;;;;;18.20;8.63;;;;;;;3.57;nan;101170.81;5059257;28;20042;-72
2022/04/04 07:18:09;;;;;;;13.02;7.30;;;;;;;3.58;nan;101169.00;5050800;28;20044;-73
2022/04/04 07:20:34;;;;;;;20.33;9.45;;;;;;;3.63;nan;101162.34;5063178;28;20055;-72
2022/04/04 07:23:00;;;;;;;17.02;8.05;;;;;;;3.62;nan;101152.91;5049989;28;20045;-73
2022/04/04 07:25:28;;;;;;;13.13;7.65;;;;;;;3.72;nan;101160.56;5049407;28;20429;-73
2022/04/04 07:27:54;;;;;;;17.20;7.10;;;;;;;3.75;nan;101172.44;5052061;28;20040;-73
2022/04/04 07:30:23;;;;;;;12.75;7.05;;;;;;;3.77;nan;101171.31;5062908;28;20094;-73
2022/04/04 07:32:50;;;;;;;12.55;6.60;;;;;;;3.80;nan;101162.38;5048957;28;20083;-74
2022/04/04 07:35:17;;;;;;;12.32;6.10;;;;;;;3.88;nan;101164.16;5050300;28;20248;-73
2022/04/04 07:37:45;;;;;;;10.63;6.78;;;;;;;3.97;nan;101176.22;5050010;28;20036;-73
2022/04/04 07:40:12;;;;;;;12.35;6.60;;;;;;;4.00;nan;101157.66;5044563;28;20047;-75
2022/04/04 07:42:38;;;;;;;13.68;7.15;;;;;;;4.12;nan;101173.78;5041486;28;20083;-73
2022/04/04 07:45:09;;;;;;;11.88;6.50;;;;;;;3.91;nan;101133.41;5048798;28;20052;-73
2022/04/04 07:47:35;;;;;;;10.23;6.35;;;;;;;4.21;nan;101170.19;5055276;28;20044;-73
2022/04/04 07:50:01;;;;;;;8.55;5.53;;;;;;;4.23;nan;101163.81;5051625;28;20036;-73
2022/04/04 07:52:27;;;;;;;10.70;5.57;;;;;;;;;;5040009;28;20471;-73
2022/04/04 07:54:53;;;;;;;8.13;5.07;;;;;;;;;;5048904;28;20037;-72
2022/04/04 07:57:19;;;;;;;9.30;5.20;;;;;;;;;;5049342;28;20091;-73
2022/04/04 07:59:45;;;;;;;9.80;5.50;;;;;;;;;;5065155;28;20041;-73
2022/04/04 08:02:10;;;;;;;12.98;5.90;;;;;;;4.42;nan;101167.06;5056482;28;20037;-73
2022/04/04 08:04:36;;;;;;;9.65;5.88;;;;;;;4.35;nan;101150.47;5043954;28;20037;-71
2022/04/04 08:07:01;;;;;;;10.10;4.95;;;;;;;4.50;nan;101168.84;5050138;28;20071;-72
2022/04/04 08:09:27;;;;;;;8.35;4.88;;;;;;;4.52;nan;101162.50;5047490;28;20086;-73
2022/04/04 08:11:54;;;;;;;13.05;4.97;;;;;;;4.62;nan;101172.72;5047618;28;20095;-72
2022/04/04 08:14:21;;;;;;;12.75;4.90;;;;;;;4.68;nan;101174.69;5045477;28;20029;-73
2022/04/04 08:16:47;;;;;;;8.55;5.38;;;;;;;4.66;nan;101158.38;5045647;28;20115;-73
2022/04/04 08:19:13;;;;;;;11.02;5.30;;;;;;;4.66;nan;101158.38;5046422;28;20454;-73
2022/04/04 08:21:41;;;;;;;9.25;5.07;;;;;;;4.72;nan;101162.94;5044761;28;20041;-72
2022/04/04 08:24:07;;;;;;;8.48;5.30;;;;;;;4.85;nan;101155.38;5049514;28;20041;-72
2022/04/04 08:26:33;;;;;;;7.70;4.43;;;;;;;4.99;nan;101153.88;5048800;28;20040;-73
2022/04/04 08:28:59;;;;;;;8.18;4.75;;;;;;;5.13;nan;101148.94;5050179;28;20032;-73
2022/04/04 08:31:24;;;;;;;8.07;4.78;;;;;;;5.23;nan;101158.19;5047022;28;20036;-73
2022/04/04 08:33:50;;;;;;;7.68;4.75;;;;;;;5.26;nan;101159.63;5048629;28;20124;-72
2022/04/04 08:36:16;;;;;;;7.20;4.80;;;;;;;5.27;nan;101156.84;5048420;28;20029;-73
2022/04/04 08:38:42;;;;;;;8.32;4.85;;;;;;;5.37;nan;101156.63;5058887;28;20036;-73
2022/04/04 08:41:09;;;;;;;10.75;5.07;;;;;;;5.40;nan;101160.72;5046236;28;20037;-71
2022/04/04 08:43:37;;;;;;;7.82;4.82;;;;;;;4.96;nan;101122.09;5057018;28;20037;-73
2022/04/04 08:46:06;;;;;;;9.13;5.22;;;;;;;5.22;nan;101164.41;5038211;28;20466;-72
2022/04/04 08:48:37;;;;;;;12.88;5.18;;;;;;;5.33;nan;101160.56;5049315;28;20078;-73
2022/04/04 08:51:03;;;;;;;7.35;4.65;;;;;;;5.30;nan;101159.13;5050115;28;20061;-71
2022/04/04 08:53:28;;;;;;;10.63;5.38;;;;;;;5.29;nan;101146.22;5052935;28;20064;-73
2022/04/04 08:55:57;;;;;;;9.27;5.07;;;;;;;5.52;nan;101159.31;5052310;28;20033;-73
2022/04/04 08:58:24;;;;;;;9.05;5.03;;;;;;;5.55;nan;101148.53;5051340;28;20037;-73
2022/04/04 09:00:49;;;;;;;8.90;5.78;;;;;;;5.43;nan;101148.09;5062054;28;20617;-71
2022/04/04 09:03:22;;;;;;;9.25;4.78;;;;;;;5.29;nan;101152.28;5060320;28;20036;-73
2022/04/04 09:05:56;;;;;;;7.55;4.45;;;;;;;5.48;nan;101155.41;5051887;28;20036;-72
2022/04/04 09:08:23;;;;;;;8.73;5.18;;;;;;;5.60;nan;101148.81;5061743;28;20049;-72
2022/04/04 09:10:51;;;;;;;7.95;5.18;;;;;;;5.51;nan;101126.38;5061051;28;20518;-72
2022/04/04 09:13:18;;;;;;;9.25;5.45;;;;;;;5.67;nan;101152.34;5049524;28;20060;-72
2022/04/04 09:15:52;;;;;;;9.23;5.82;;;;;;;5.73;nan;101156.91;5046652;28;20037;-72
2022/04/04 09:18:19;;;;;;;8.18;5.03;;;;;;;5.68;nan;101130.47;5049616;28;20041;-73
2022/04/04 09:20:49;;;;;;;8.15;4.65;;;;;;;5.83;nan;101148.00;5064695;28;20194;-73
2022/04/04 09:23:15;;;;;;;11.35;5.22;;;;;;;5.84;nan;101140.00;5046231;28;20040;-72
2022/04/04 09:25:40;;;;;;;9.30;4.80;;;;;;;5.89;nan;101140.28;5044727;28;20041;-72
2022/04/04 09:28:17;;;;;;;10.07;4.53;;;;;;;5.94;nan;101135.38;5048085;28;20094;-72
2022/04/04 09:30:44;;;;;;;10.52;4.72;;;;;;;6.06;nan;101143.63;5043402;28;20037;-71
2022/04/04 09:33:14;;;;;;;12.27;5.47;;;;;;;6.08;nan;101122.50;5073593;28;20143;-71
2022/04/04 09:35:46;;;;;;;7.68;4.63;;;;;;;6.24;nan;101132.00;5040601;28;20133;-71
2022/04/04 09:38:14;;;;;;;8.98;4.80;;;;;;;6.18;nan;101117.84;5035190;28;20044;-72
2022/04/04 09:40:40;;;;;;;10.10;4.95;;;;;;;6.30;nan;101123.47;5048591;28;20731;-71
2022/04/04 09:43:06;;;;;;;8.95;5.05;;;;;;;6.33;nan;101120.47;5039300;28;20032;-71
2022/04/04 09:45:32;;;;;;;10.82;5.30;;;;;;;6.16;nan;101104.94;5048560;28;20045;-70
2022/04/04 09:47:58;;;;;;;8.48;5.60;;;;;;;6.25;nan;101104.84;5048411;28;20540;-71
2022/04/04 09:50:41;;;;;;;10.23;5.60;;;;;;;6.39;nan;101117.13;5035737;28;20091;-72
2022/04/04 09:53:08;;;;;;;10.68;6.72;;;;;;;6.39;nan;101119.75;5037750;28;20040;-72
2022/04/04 09:55:40;;;;;;;8.35;5.75;;;;;;;6.37;nan;101113.91;5047955;28;20041;-72
2022/04/04 09:58:08;;;;;;;9.10;5.60;;;;;;;6.43;nan;101096.69;5051406;28;20045;-71
2022/04/04 10:00:36;;;;;;;9.48;5.40;;;;;;;6.54;nan;101085.75;5047769;28;20044;-73
2022/04/04 10:03:02;;;;;;;10.48;5.20;;;;;;;6.73;nan;101090.44;5046477;28;20033;-71
2022/04/04 10:05:29;;;;;;;9.77;5.20;;;;;;;6.87;nan;101095.81;5048676;28;20110;-73
2022/04/04 10:07:57;;;;;;;9.00;5.25;;;;;;;6.98;nan;101093.53;5035023;28;20065;-74
2022/04/04 10:10:28;;;;;;;7.07;4.78;;;;;;;7.02;nan;101079.09;5044573;28;20032;-71
2022/04/04 10:12:54;;;;;;;9.02;5.30;;;;;;;7.18;nan;101092.94;5037214;28;20036;-72
2022/04/04 10:15:21;;;;;;;7.53;5.10;;;;;;;7.24;nan;101089.59;5047576;28;20116;-72
2022/04/04 10:17:49;;;;;;;7.95;4.93;;;;;;;7.25;nan;101083.34;5040917;28;20379;-72
2022/04/04 10:20:14;;;;;;;7.25;4.80;;;;;;;7.21;nan;101087.38;5045767;28;20890;-72
2022/04/04 10:22:40;;;;;;;8.77;4.82;;;;;;;7.15;nan;101073.19;5046555;28;20120;-72
2022/04/04 10:25:07;;;;;;;6.72;5.28;;;;;;;7.27;nan;101084.00;5048215;28;20132;-74
2022/04/04 10:27:36;;;;;;;10.95;5.07;;;;;;;7.21;nan;101072.44;5048852;28;20033;-74
2022/04/04 10:30:06;;;;;;;6.47;4.90;;;;;;;7.39;nan;101074.63;5051342;28;20483;-72
2022/04/04 10:32:33;;;;;;;10.93;4.97;;;;;;;7.53;nan;101080.00;5046522;28;20033;-72
2022/04/04 10:35:09;;;;;;;8.25;5.05;;;;;;;7.54;nan;101056.25;5041686;28;20663;-72
2022/04/04 10:37:43;;;;;;;7.00;5.10;;;;;;;7.58;nan;101054.03;5048837;28;20029;-72
2022/04/04 10:40:20;;;;;;;6.95;5.18;;;;;;;7.63;nan;101044.59;5051379;28;20040;-72
2022/04/04 10:42:48;;;;;;;8.77;4.38;;;;;;;7.85;nan;101068.16;5049824;28;20028;-72
2022/04/04 10:45:15;;;;;;;6.35;4.45;;;;;;;7.85;nan;101063.75;5060581;28;20103;-71
2022/04/04 10:47:44;;;;;;;7.35;4.53;;;;;;;7.88;nan;101068.59;5049683;28;20087;-70
2022/04/04 10:50:24;;;;;;;6.65;4.65;;;;;;;7.80;nan;101055.63;5045092;28;20036;-71
2022/04/04 10:52:51;;;;;;;7.22;4.95;;;;;;;7.91;nan;101054.31;5049925;28;20039;-72
2022/04/04 10:55:36;;;;;;;7.90;4.85;;;;;;;8.00;nan;101052.34;5050447;28;20403;-71
2022/04/04 10:58:16;;;;;;;7.03;4.60;;;;;;;8.07;nan;101054.00;5051658;28;20044;-72
2022/04/04 11:01:02;;;;;;;9.88;4.57;;;;;;;8.10;nan;101043.13;5048530;28;20049;-72
2022/04/04 11:03:33;;;;;;;6.72;4.47;;;;;;;8.18;nan;101044.78;5059379;28;20029;-72
2022/04/04 11:09:22;;;;;;;8.68;5.57;;;;;;;8.30;nan;101045.84;5050008;28;20482;-72
2022/04/04 11:12:00;;;;;;;8.23;5.25;;;;;;;8.43;nan;101047.78;5031221;28;20064;-74
2022/04/04 11:14:28;;;;;;;7.47;4.45;;;;;;;8.55;nan;101037.56;5044548;28;20034;-72
2022/04/04 11:17:06;;;;;;;6.45;4.90;;;;;;;8.60;nan;101034.34;5057154;28;20483;-74
2022/04/04 11:19:52;;;;;;;8.13;5.20;;;;;;;8.36;nan;101022.50;5047013;28;20040;-73
2022/04/04 11:22:28;;;;;;;7.70;5.43;;;;;;;8.28;nan;101020.81;5051725;28;20487;-74
2022/04/04 11:25:03;;;;;;;6.15;4.35;;;;;;;8.39;nan;101017.66;5062212;28;20041;-71
2022/04/04 11:27:29;;;;;;;6.50;4.88;;;;;;;8.49;nan;101017.31;5031819;28;20045;-71
2022/04/04 11:29:55;;;;;;;7.18;5.35;;;;;;;8.30;nan;101013.56;5050434;28;20108;-73
2022/04/04 11:32:33;;;;;;;7.03;5.53;;;;;;;8.25;nan;101011.53;5049735;28;20045;-72
2022/04/04 11:35:01;;;;;;;7.07;5.05;;;;;;;8.39;nan;101001.91;5044361;28;20072;-72
2022/04/04 11:37:29;;;;;;;8.10;4.70;;;;;;;8.56;nan;101007.66;5043299;28;20500;-72
2022/04/04 11:40:03;;;;;;;6.20;4.97;;;;;;;8.66;nan;101012.53;5050297;28;20364;-71
2022/04/04 11:42:40;;;;;;;8.13;5.07;;;;;;;8.79;nan;101009.97;5048037;28;20029;-70
2022/04/04 11:45:05;;;;;;;7.78;5.03;;;;;;;8.62;nan;100983.25;5059239;28;20120;-71
2022/04/04 11:47:32;;;;;;;6.47;4.70;;;;;;;8.60;nan;100995.78;5050418;28;20510;-72
2022/04/04 11:50:01;;;;;;;6.50;4.72;;;;;;;8.72;nan;100996.00;5049237;28;20028;-72
2022/04/04 11:52:27;;;;;;;9.82;5.18;;;;;;;8.64;nan;100996.16;5051791;28;20382;-71
2022/04/04 11:54:53;;;;;;;6.57;4.70;;;;;;;8.82;nan;100990.38;5051453;28;20041;-71
2022/04/04 11:57:22;;;;;;;7.32;5.13;;;;;;;8.91;nan;100992.63;5050812;28;20048;-71
2022/04/04 11:59:49;;;;;;;7.07;5.28;;;;;;;8.86;nan;100979.28;5047628;28;20056;-71
2022/04/04 12:02:16;;;;;;;8.68;5.43;;;;;;;8.87;nan;100975.63;5051054;28;20040;-71
2022/04/04 12:04:43;;;;;;;7.05;4.88;;;;;;;9.03;nan;100979.72;5048066;28;20592;-70
2022/04/04 12:07:10;;;;;;;8.80;5.25;;;;;;;9.15;nan;100975.47;5050759;28;20060;-71
2022/04/04 12:09:38;;;;;;;7.05;5.30;;;;;;;9.12;nan;100949.63;5043940;28;20030;-74
2022/04/04 12:12:08;;;;;;;8.52;5.20;;;;;;;9.12;nan;100978.50;5041507;28;20391;-74
2022/04/04 12:14:37;;;;;;;5.78;4.60;;;;;;;9.19;nan;100969.81;5050568;28;20041;-74
2022/04/04 12:17:11;;;;;;;8.18;5.53;;;;;;;9.08;nan;100958.91;5049321;28;20037;-74
2022/04/04 12:19:45;;;;;;;7.18;5.07;;;;;;;9.19;nan;100948.78;5046205;28;20032;-74